EGYH - Holbeach
Distance from station: E 5mi, 14km
Updated: 10/19/2017 7:50am
NOT Current
Haze, Mostly cloudy
Haze, Mostly cloudy
 Wind from S
Wind: S 17 mph , 28 km/h
Temperature: 63°F , 17°C
Dew Point: 59°F , 15°C
Humidity: 88%
Barometer: 29.53 inHg , 1000 hPa
Summary: Haze
Clouds: Mostly Cloudy
Visibility: 5 miles , 8 km
Cloud details: Mostly Cloudy 3500 ft
2017/10/19 14:50 EGYH 191450Z 17015KT 8000 HZ BKN035 17/15 Q1000 BLU